Guilford College, North Carolina
Current Conditions -  °F | °C
As of 10:54 PM on Friday 19 Dec 2014 (Local Time) from KGSO Reporting Station
Broken Clouds Broken Clouds  
Wind Chill: 36°   Ceiling: 25000
Heat Index: 40°   Visibility: 10mi
Dew Point: 26°   Wind: 6mph
Humidity: 58%   Direction: 60°ENE
Pressure: 30.17"   Gusts: NA
Location:  36.1197°N, 79.8944°W
Report Text: KGSO 200354Z 06005KT 10SM BKN250 04/M03 A3017 RMK AO2 SLP219 T00441033
Loading
Personal Weather Stations






























Interactive Weather Map New forecast layout! Learn more

10-Day Weather Forecast

Advertisements
Track Severe Weather on mobile